Time,TemperatureF,DewpointF,PressureIn,WindDirection,WindDirectionDegrees,WindSpeedMPH,WindSpeedGustMPH,Humidity,HourlyPrecipIn,Conditions,Clouds,dailyrainin,SolarRadiationWatts/m^2,SoftwareType,DateUTC
2013-02-07 03:00:00,11.0,8.0,30.38,WSW,244,2.0,-999.0,87,-99.99,,,-99.99,0.020000,,2013-02-07 08:00:00,
2013-02-07 03:52:00,11.0,8.0,30.38,WSW,244,2.0,-999.0,87,-99.99,,,-99.99,0.020000,,2013-02-07 08:52:00,
2013-02-07 04:00:00,14.0,11.0,30.38,SW,233,1.0,-999.0,86,-99.99,,,-99.99,0.010000,,2013-02-07 09:00:00,
2013-02-07 04:52:00,14.0,11.0,30.38,SW,233,1.0,-999.0,86,-99.99,,,-99.99,0.010000,,2013-02-07 09:52:00,
2013-02-07 05:00:00,16.0,11.0,30.40,SSW,194,1.0,-999.0,79,-99.99,,,-99.99,0.030000,,2013-02-07 10:00:00,
2013-02-07 05:52:00,16.0,11.0,30.40,SSW,194,1.0,-999.0,79,-99.99,,,-99.99,0.030000,,2013-02-07 10:52:00,
2013-02-07 06:00:00,18.0,9.0,30.41,SSE,157,1.0,-999.0,69,-99.99,,,-99.99,0.030000,,2013-02-07 11:00:00,
2013-02-07 06:53:00,18.0,9.0,30.41,SSE,157,1.0,-999.0,69,-99.99,,,-99.99,0.030000,,2013-02-07 11:53:00,
2013-02-07 07:00:00,17.0,12.0,30.40,ESE,123,2.0,-999.0,79,-99.99,,,-99.99,0.110000,,2013-02-07 12:00:00,
2013-02-07 07:53:00,17.0,12.0,30.40,ESE,123,2.0,-999.0,79,-99.99,,,-99.99,0.110000,,2013-02-07 12:53:00,
2013-02-07 08:00:00,19.0,11.0,30.42,ESE,122,6.0,-999.0,70,-99.99,,,-99.99,15.600000,,2013-02-07 13:00:00,
2013-02-07 08:52:00,19.0,11.0,30.42,ESE,122,6.0,-999.0,70,-99.99,,,-99.99,15.600000,,2013-02-07 13:52:00,
2013-02-07 09:00:00,20.0,11.0,30.43,ESE,121,8.0,-999.0,66,-99.99,,,-99.99,100.699997,,2013-02-07 14:00:00,
2013-02-07 09:52:00,20.0,11.0,30.43,ESE,121,8.0,-999.0,66,-99.99,,,-99.99,100.699997,,2013-02-07 14:52:00,
2013-02-07 10:00:00,22.0,12.0,30.42,ESE,113,9.0,-999.0,66,-99.99,,,-99.99,204.199997,,2013-02-07 15:00:00,
2013-02-07 10:52:00,22.0,12.0,30.42,ESE,113,9.0,-999.0,66,-99.99,,,-99.99,204.199997,,2013-02-07 15:52:00,
2013-02-07 11:00:00,23.0,13.0,30.40,ESE,105,11.0,-999.0,65,-99.99,,,-99.99,379.600006,,2013-02-07 16:00:00,
2013-02-07 11:52:00,23.0,13.0,30.40,ESE,105,11.0,-999.0,65,-99.99,,,-99.99,379.600006,,2013-02-07 16:52:00,
2013-02-07 12:00:00,24.0,13.0,30.37,ESE,104,12.0,-999.0,63,-99.99,,,-99.99,464.299988,,2013-02-07 17:00:00,
2013-02-07 12:52:00,24.0,13.0,30.37,ESE,104,12.0,-999.0,63,-99.99,,,-99.99,464.299988,,2013-02-07 17:52:00,
2013-02-07 13:00:00,25.0,13.0,30.33,ESE,105,11.0,-999.0,59,-99.99,,,-99.99,325.500000,,2013-02-07 18:00:00,
2013-02-07 13:52:00,25.0,13.0,30.33,ESE,105,11.0,-999.0,59,-99.99,,,-99.99,325.500000,,2013-02-07 18:52:00,
2013-02-07 14:00:00,27.0,15.0,30.30,East,101,11.0,-999.0,59,-99.99,,,-99.99,342.700012,,2013-02-07 19:00:00,
2013-02-07 14:52:00,27.0,15.0,30.30,East,101,11.0,-999.0,59,-99.99,,,-99.99,342.700012,,2013-02-07 19:52:00,
2013-02-07 15:00:00,29.0,16.0,30.27,East,100,10.0,-999.0,57,-99.99,,,-99.99,308.000000,,2013-02-07 20:00:00,
2013-02-07 15:52:00,29.0,16.0,30.27,East,100,10.0,-999.0,57,-99.99,,,-99.99,308.000000,,2013-02-07 20:52:00,
2013-02-07 16:00:00,29.0,15.0,30.25,ESE,102,10.0,-999.0,55,-99.99,,,-99.99,195.699997,,2013-02-07 21:00:00,
2013-02-07 16:52:00,29.0,15.0,30.25,ESE,102,10.0,-999.0,55,-99.99,,,-99.99,195.699997,,2013-02-07 21:52:00,
2013-02-07 17:00:00,30.0,18.0,30.24,East,101,9.0,-999.0,59,-99.99,,,-99.99,66.580002,,2013-02-07 22:00:00,
2013-02-07 17:52:00,30.0,18.0,30.24,East,101,9.0,-999.0,59,-99.99,,,-99.99,66.580002,,2013-02-07 22:52:00,
2013-02-07 18:00:00,29.0,18.0,30.23,East,79,7.0,-999.0,61,-99.99,,,-99.99,8.210000,,2013-02-07 23:00:00,
2013-02-07 18:52:00,29.0,18.0,30.23,East,79,7.0,-999.0,61,-99.99,,,-99.99,8.210000,,2013-02-07 23:52:00,
2013-02-07 19:00:00,29.0,17.0,30.23,East,86,6.0,-999.0,60,-99.99,,,-99.99,0.070000,,2013-02-08 00:00:00,
2013-02-07 19:52:00,29.0,17.0,30.23,East,86,6.0,-999.0,60,-99.99,,,-99.99,0.070000,,2013-02-08 00:52:00,
2013-02-07 20:00:00,31.0,17.0,30.21,ESE,120,6.0,-999.0,56,-99.99,,,-99.99,0.060000,,2013-02-08 01:00:00,
2013-02-07 20:52:00,31.0,17.0,30.21,ESE,120,6.0,-999.0,56,-99.99,,,-99.99,0.060000,,2013-02-08 01:52:00,
2013-02-07 21:00:00,31.0,19.0,30.20,ESE,122,9.0,-999.0,60,-99.99,,,-99.99,0.060000,,2013-02-08 02:00:00,
2013-02-07 21:52:00,31.0,19.0,30.20,ESE,122,9.0,-999.0,60,-99.99,,,-99.99,0.060000,,2013-02-08 02:52:00,
2013-02-07 22:00:00,31.0,19.0,30.17,SE,143,12.0,-999.0,60,-99.99,,,-99.99,0.080000,,2013-02-08 03:00:00,
2013-02-07 22:52:00,31.0,19.0,30.17,SE,143,12.0,-999.0,60,-99.99,,,-99.99,0.080000,,2013-02-08 03:52:00,
2013-02-07 23:00:00,31.0,18.0,30.13,SE,145,15.0,-999.0,58,-99.99,,,-99.99,0.100000,,2013-02-08 04:00:00,
2013-02-07 23:52:00,31.0,18.0,30.13,SE,145,15.0,-999.0,58,-99.99,,,-99.99,0.100000,,2013-02-08 04:52:00,